sensor_id;sensor_type;location;lat;lon;timestamp;P1;durP1;ratioP1;P2;durP2;ratioP2
45136;SDS011;30894;51.740;19.498;2023-04-01T00:02:17;5.85;;;2.28;;
45136;SDS011;30894;51.740;19.498;2023-04-01T00:04:53;5.28;;;2.13;;
45136;SDS011;30894;51.740;19.498;2023-04-01T00:07:40;4.30;;;1.98;;
45136;SDS011;30894;51.740;19.498;2023-04-01T00:10:07;6.13;;;2.65;;
45136;SDS011;30894;51.740;19.498;2023-04-01T00:12:40;4.03;;;2.43;;
45136;SDS011;30894;51.740;19.498;2023-04-01T00:15:16;5.00;;;2.67;;
45136;SDS011;30894;51.740;19.498;2023-04-01T00:18:23;4.88;;;2.90;;
45136;SDS011;30894;51.740;19.498;2023-04-01T00:25:14;3.85;;;2.22;;
45136;SDS011;30894;51.740;19.498;2023-04-01T00:29:16;4.55;;;2.53;;
45136;SDS011;30894;51.740;19.498;2023-04-01T00:31:56;4.45;;;2.72;;
45136;SDS011;30894;51.740;19.498;2023-04-01T00:35:14;7.13;;;3.40;;
45136;SDS011;30894;51.740;19.498;2023-04-01T00:38:26;9.00;;;3.30;;
45136;SDS011;30894;51.740;19.498;2023-04-01T00:42:01;4.38;;;2.10;;
45136;SDS011;30894;51.740;19.498;2023-04-01T00:45:37;3.13;;;2.58;;
45136;SDS011;30894;51.740;19.498;2023-04-01T00:52:29;6.13;;;2.50;;
45136;SDS011;30894;51.740;19.498;2023-04-01T00:55:48;5.78;;;3.33;;
45136;SDS011;30894;51.740;19.498;2023-04-01T00:58:54;4.20;;;2.60;;
45136;SDS011;30894;51.740;19.498;2023-04-01T01:01:51;4.85;;;3.17;;
45136;SDS011;30894;51.740;19.498;2023-04-01T01:11:35;17.00;;;3.20;;
45136;SDS011;30894;51.740;19.498;2023-04-01T01:14:21;4.90;;;2.85;;
45136;SDS011;30894;51.740;19.498;2023-04-01T01:17:13;5.00;;;2.33;;
45136;SDS011;30894;51.740;19.498;2023-04-01T01:29:42;9.93;;;4.05;;
45136;SDS011;30894;51.740;19.498;2023-04-01T01:35:52;8.23;;;3.28;;
45136;SDS011;30894;51.740;19.498;2023-04-01T01:38:51;8.32;;;3.38;;
45136;SDS011;30894;51.740;19.498;2023-04-01T01:41:27;3.83;;;3.03;;
45136;SDS011;30894;51.740;19.498;2023-04-01T01:44:00;6.32;;;3.13;;
45136;SDS011;30894;51.740;19.498;2023-04-01T01:47:11;5.25;;;2.60;;
45136;SDS011;30894;51.740;19.498;2023-04-01T01:50:09;8.32;;;2.65;;
45136;SDS011;30894;51.740;19.498;2023-04-01T01:56:43;3.72;;;2.22;;
45136;SDS011;30894;51.740;19.498;2023-04-01T02:02:31;3.80;;;2.80;;
45136;SDS011;30894;51.740;19.498;2023-04-01T02:05:09;4.63;;;2.38;;
45136;SDS011;30894;51.740;19.498;2023-04-01T02:08:11;4.28;;;2.10;;
45136;SDS011;30894;51.740;19.498;2023-04-01T02:11:20;3.17;;;2.72;;
45136;SDS011;30894;51.740;19.498;2023-04-01T02:14:07;2.03;;;1.60;;
45136;SDS011;30894;51.740;19.498;2023-04-01T02:17:09;7.75;;;2.33;;
45136;SDS011;30894;51.740;19.498;2023-04-01T02:20:01;4.32;;;1.58;;
45136;SDS011;30894;51.740;19.498;2023-04-01T02:22:51;1.92;;;1.30;;
45136;SDS011;30894;51.740;19.498;2023-04-01T02:25:34;2.50;;;1.98;;
45136;SDS011;30894;51.740;19.498;2023-04-01T02:28:22;5.38;;;1.73;;
45136;SDS011;30894;51.740;19.498;2023-04-01T02:31:07;4.32;;;1.90;;
45136;SDS011;30894;51.740;19.498;2023-04-01T02:33:43;3.33;;;2.50;;
45136;SDS011;30894;51.740;19.498;2023-04-01T02:36:24;9.77;;;2.10;;
45136;SDS011;30894;51.740;19.498;2023-04-01T02:39:25;3.83;;;2.05;;
45136;SDS011;30894;51.740;19.498;2023-04-01T02:42:36;2.05;;;1.48;;
45136;SDS011;30894;51.740;19.498;2023-04-01T02:45:19;3.17;;;1.42;;
45136;SDS011;30894;51.740;19.498;2023-04-01T02:47:53;6.28;;;2.53;;
45136;SDS011;30894;51.740;19.498;2023-04-01T02:50:31;9.98;;;2.25;;
45136;SDS011;30894;51.740;19.498;2023-04-01T02:53:10;1.63;;;1.48;;
45136;SDS011;30894;51.740;19.498;2023-04-01T02:56:12;3.28;;;2.00;;
45136;SDS011;30894;51.740;19.498;2023-04-01T02:58:42;5.72;;;2.67;;
45136;SDS011;30894;51.740;19.498;2023-04-01T03:01:20;6.95;;;2.22;;
45136;SDS011;30894;51.740;19.498;2023-04-01T03:03:54;3.72;;;2.17;;
45136;SDS011;30894;51.740;19.498;2023-04-01T03:06:23;3.25;;;1.70;;
45136;SDS011;30894;51.740;19.498;2023-04-01T03:08:55;4.13;;;1.95;;
45136;SDS011;30894;51.740;19.498;2023-04-01T03:11:34;6.32;;;1.90;;
45136;SDS011;30894;51.740;19.498;2023-04-01T03:14:12;3.88;;;1.83;;
45136;SDS011;30894;51.740;19.498;2023-04-01T03:16:45;5.25;;;1.83;;
45136;SDS011;30894;51.740;19.498;2023-04-01T03:19:13;4.18;;;2.03;;
45136;SDS011;30894;51.740;19.498;2023-04-01T03:21:47;5.20;;;2.00;;
45136;SDS011;30894;51.740;19.498;2023-04-01T03:24:19;3.15;;;2.40;;
45136;SDS011;30894;51.740;19.498;2023-04-01T03:26:49;2.53;;;2.33;;
45136;SDS011;30894;51.740;19.498;2023-04-01T03:29:17;3.70;;;1.92;;
45136;SDS011;30894;51.740;19.498;2023-04-01T03:31:44;2.00;;;1.63;;
45136;SDS011;30894;51.740;19.498;2023-04-01T03:34:13;1.90;;;1.70;;
45136;SDS011;30894;51.740;19.498;2023-04-01T03:36:40;1.67;;;1.25;;
45136;SDS011;30894;51.740;19.498;2023-04-01T03:39:06;1.65;;;1.55;;
45136;SDS011;30894;51.740;19.498;2023-04-01T03:41:35;1.35;;;1.15;;
45136;SDS011;30894;51.740;19.498;2023-04-01T03:44:05;2.30;;;1.95;;
45136;SDS011;30894;51.740;19.498;2023-04-01T03:46:32;4.15;;;1.70;;
45136;SDS011;30894;51.740;19.498;2023-04-01T03:48:58;5.03;;;1.90;;
45136;SDS011;30894;51.740;19.498;2023-04-01T03:51:25;3.42;;;2.13;;
45136;SDS011;30894;51.740;19.498;2023-04-01T03:53:51;2.08;;;1.60;;
45136;SDS011;30894;51.740;19.498;2023-04-01T03:56:20;10.27;;;2.05;;
45136;SDS011;30894;51.740;19.498;2023-04-01T03:58:48;3.67;;;2.28;;
45136;SDS011;30894;51.740;19.498;2023-04-01T04:01:16;1.30;;;1.20;;
45136;SDS011;30894;51.740;19.498;2023-04-01T04:03:47;1.38;;;1.23;;
45136;SDS011;30894;51.740;19.498;2023-04-01T04:06:17;2.15;;;1.45;;
45136;SDS011;30894;51.740;19.498;2023-04-01T04:08:48;2.35;;;1.90;;
45136;SDS011;30894;51.740;19.498;2023-04-01T04:11:18;4.53;;;1.77;;
45136;SDS011;30894;51.740;19.498;2023-04-01T04:13:56;3.97;;;2.28;;
45136;SDS011;30894;51.740;19.498;2023-04-01T04:16:23;2.08;;;1.33;;
45136;SDS011;30894;51.740;19.498;2023-04-01T04:18:55;1.63;;;1.35;;
45136;SDS011;30894;51.740;19.498;2023-04-01T04:21:24;1.75;;;1.05;;
45136;SDS011;30894;51.740;19.498;2023-04-01T04:23:50;3.67;;;1.83;;
45136;SDS011;30894;51.740;19.498;2023-04-01T04:26:17;2.58;;;2.03;;
45136;SDS011;30894;51.740;19.498;2023-04-01T04:28:43;4.22;;;2.47;;
45136;SDS011;30894;51.740;19.498;2023-04-01T04:31:10;3.15;;;2.03;;
45136;SDS011;30894;51.740;19.498;2023-04-01T04:33:42;4.25;;;2.35;;
45136;SDS011;30894;51.740;19.498;2023-04-01T04:36:12;2.67;;;1.88;;
45136;SDS011;30894;51.740;19.498;2023-04-01T04:38:43;2.97;;;1.85;;
45136;SDS011;30894;51.740;19.498;2023-04-01T04:41:21;2.53;;;1.80;;
45136;SDS011;30894;51.740;19.498;2023-04-01T04:43:49;3.00;;;1.45;;
45136;SDS011;30894;51.740;19.498;2023-04-01T04:46:19;1.73;;;1.45;;
45136;SDS011;30894;51.740;19.498;2023-04-01T04:48:46;6.82;;;1.20;;
45136;SDS011;30894;51.740;19.498;2023-04-01T04:51:15;1.77;;;1.63;;
45136;SDS011;30894;51.740;19.498;2023-04-01T04:53:43;3.03;;;1.20;;
45136;SDS011;30894;51.740;19.498;2023-04-01T04:56:10;0.88;;;0.70;;
45136;SDS011;30894;51.740;19.498;2023-04-01T04:58:37;4.35;;;1.63;;
45136;SDS011;30894;51.740;19.498;2023-04-01T05:01:06;2.97;;;0.82;;
45136;SDS011;30894;51.740;19.498;2023-04-01T05:03:38;5.25;;;1.80;;
45136;SDS011;30894;51.740;19.498;2023-04-01T05:06:05;3.25;;;1.55;;
45136;SDS011;30894;51.740;19.498;2023-04-01T05:08:35;4.45;;;1.88;;
45136;SDS011;30894;51.740;19.498;2023-04-01T05:11:06;2.25;;;1.67;;
45136;SDS011;30894;51.740;19.498;2023-04-01T05:13:39;4.13;;;1.98;;
45136;SDS011;30894;51.740;19.498;2023-04-01T05:16:12;1.88;;;1.35;;
45136;SDS011;30894;51.740;19.498;2023-04-01T05:18:41;1.80;;;1.35;;
45136;SDS011;30894;51.740;19.498;2023-04-01T05:21:09;2.60;;;1.77;;
45136;SDS011;30894;51.740;19.498;2023-04-01T05:23:37;2.33;;;1.27;;
45136;SDS011;30894;51.740;19.498;2023-04-01T05:26:08;3.47;;;1.63;;
45136;SDS011;30894;51.740;19.498;2023-04-01T05:28:37;2.10;;;1.60;;
45136;SDS011;30894;51.740;19.498;2023-04-01T05:31:05;1.17;;;1.08;;
45136;SDS011;30894;51.740;19.498;2023-04-01T05:33:35;2.72;;;1.70;;
45136;SDS011;30894;51.740;19.498;2023-04-01T05:36:08;5.40;;;1.77;;
45136;SDS011;30894;51.740;19.498;2023-04-01T05:38:37;2.33;;;1.75;;
45136;SDS011;30894;51.740;19.498;2023-04-01T05:41:04;1.38;;;1.15;;
45136;SDS011;30894;51.740;19.498;2023-04-01T05:43:35;1.23;;;1.13;;
45136;SDS011;30894;51.740;19.498;2023-04-01T05:46:05;2.03;;;1.30;;
45136;SDS011;30894;51.740;19.498;2023-04-01T05:48:32;3.65;;;1.95;;
45136;SDS011;30894;51.740;19.498;2023-04-01T05:51:03;4.93;;;1.60;;
45136;SDS011;30894;51.740;19.498;2023-04-01T05:53:33;5.73;;;1.33;;
45136;SDS011;30894;51.740;19.498;2023-04-01T05:56:03;4.28;;;1.98;;
45136;SDS011;30894;51.740;19.498;2023-04-01T05:58:31;2.90;;;1.55;;
45136;SDS011;30894;51.740;19.498;2023-04-01T06:01:10;2.97;;;1.38;;
45136;SDS011;30894;51.740;19.498;2023-04-01T06:03:44;2.00;;;1.42;;
45136;SDS011;30894;51.740;19.498;2023-04-01T06:06:18;1.88;;;1.45;;
45136;SDS011;30894;51.740;19.498;2023-04-01T06:09:15;1.23;;;0.77;;
45136;SDS011;30894;51.740;19.498;2023-04-01T06:54:30;6.95;;;2.10;;
45136;SDS011;30894;51.740;19.498;2023-04-01T06:58:12;4.43;;;2.58;;
45136;SDS011;30894;51.740;19.498;2023-04-01T07:01:47;4.75;;;2.30;;
45136;SDS011;30894;51.740;19.498;2023-04-01T07:08:04;5.43;;;2.42;;
45136;SDS011;30894;51.740;19.498;2023-04-01T07:14:36;4.47;;;2.42;;
45136;SDS011;30894;51.740;19.498;2023-04-01T07:17:58;4.80;;;3.10;;
45136;SDS011;30894;51.740;19.498;2023-04-01T07:21:34;3.63;;;2.17;;
45136;SDS011;30894;51.740;19.498;2023-04-01T07:25:44;3.03;;;2.10;;
45136;SDS011;30894;51.740;19.498;2023-04-01T07:28:21;4.13;;;2.13;;
45136;SDS011;30894;51.740;19.498;2023-04-01T07:55:20;3.60;;;2.67;;
45136;SDS011;30894;51.740;19.498;2023-04-01T08:34:50;5.07;;;3.45;;
45136;SDS011;30894;51.740;19.498;2023-04-01T08:38:47;7.65;;;3.70;;
45136;SDS011;30894;51.740;19.498;2023-04-01T09:41:04;5.25;;;1.80;;
45136;SDS011;30894;51.740;19.498;2023-04-01T09:51:47;2.95;;;1.90;;
45136;SDS011;30894;51.740;19.498;2023-04-01T10:15:40;4.50;;;1.80;;
45136;SDS011;30894;51.740;19.498;2023-04-01T10:29:50;2.15;;;1.60;;
45136;SDS011;30894;51.740;19.498;2023-04-01T11:16:47;0.85;;;0.80;;
45136;SDS011;30894;51.740;19.498;2023-04-01T11:20:19;0.65;;;0.65;;
45136;SDS011;30894;51.740;19.498;2023-04-01T12:11:02;1.17;;;0.85;;
45136;SDS011;30894;51.740;19.498;2023-04-01T14:40:43;4.05;;;2.10;;
45136;SDS011;30894;51.740;19.498;2023-04-01T14:44:08;3.08;;;1.70;;
45136;SDS011;30894;51.740;19.498;2023-04-01T14:51:31;3.00;;;1.67;;
45136;SDS011;30894;51.740;19.498;2023-04-01T14:54:57;4.15;;;2.33;;
45136;SDS011;30894;51.740;19.498;2023-04-01T15:09:21;6.05;;;3.58;;
45136;SDS011;30894;51.740;19.498;2023-04-01T16:55:17;6.60;;;3.42;;
45136;SDS011;30894;51.740;19.498;2023-04-01T17:06:49;5.75;;;3.67;;
45136;SDS011;30894;51.740;19.498;2023-04-01T17:10:28;10.23;;;4.18;;
45136;SDS011;30894;51.740;19.498;2023-04-01T17:20:56;7.55;;;3.03;;
45136;SDS011;30894;51.740;19.498;2023-04-01T18:15:42;6.93;;;3.75;;
45136;SDS011;30894;51.740;19.498;2023-04-01T18:26:32;9.75;;;4.32;;
45136;SDS011;30894;51.740;19.498;2023-04-01T18:30:40;9.30;;;3.72;;
45136;SDS011;30894;51.740;19.498;2023-04-01T18:37:01;8.55;;;4.57;;
45136;SDS011;30894;51.740;19.498;2023-04-01T18:44:49;12.13;;;4.63;;
45136;SDS011;30894;51.740;19.498;2023-04-01T18:48:47;14.63;;;5.63;;
45136;SDS011;30894;51.740;19.498;2023-04-01T18:58:50;12.57;;;5.47;;
45136;SDS011;30894;51.740;19.498;2023-04-01T19:08:45;13.10;;;5.78;;
45136;SDS011;30894;51.740;19.498;2023-04-01T19:11:46;11.93;;;4.88;;
45136;SDS011;30894;51.740;19.498;2023-04-01T19:42:49;15.68;;;5.97;;
45136;SDS011;30894;51.740;19.498;2023-04-01T20:00:02;18.48;;;6.85;;
45136;SDS011;30894;51.740;19.498;2023-04-01T20:15:55;11.98;;;5.32;;
45136;SDS011;30894;51.740;19.498;2023-04-01T20:18:54;13.50;;;5.18;;
45136;SDS011;30894;51.740;19.498;2023-04-01T20:21:45;11.48;;;5.63;;
45136;SDS011;30894;51.740;19.498;2023-04-01T20:26:39;11.25;;;4.85;;
45136;SDS011;30894;51.740;19.498;2023-04-01T20:31:42;12.43;;;5.13;;
45136;SDS011;30894;51.740;19.498;2023-04-01T20:43:04;10.30;;;4.72;;
45136;SDS011;30894;51.740;19.498;2023-04-01T20:58:01;11.98;;;5.40;;
45136;SDS011;30894;51.740;19.498;2023-04-01T21:00:51;10.27;;;6.20;;
45136;SDS011;30894;51.740;19.498;2023-04-01T21:04:22;14.23;;;5.70;;
45136;SDS011;30894;51.740;19.498;2023-04-01T21:09:41;13.90;;;6.10;;
45136;SDS011;30894;51.740;19.498;2023-04-01T21:16:08;13.48;;;6.90;;
45136;SDS011;30894;51.740;19.498;2023-04-01T21:19:38;13.68;;;5.40;;
45136;SDS011;30894;51.740;19.498;2023-04-01T21:22:47;13.93;;;5.57;;
45136;SDS011;30894;51.740;19.498;2023-04-01T21:31:24;14.75;;;6.18;;
45136;SDS011;30894;51.740;19.498;2023-04-01T22:07:33;5.25;;;2.75;;
45136;SDS011;30894;51.740;19.498;2023-04-01T22:10:50;8.48;;;3.17;;
45136;SDS011;30894;51.740;19.498;2023-04-01T22:16:05;3.95;;;3.03;;
45136;SDS011;30894;51.740;19.498;2023-04-01T22:18:54;4.80;;;3.10;;
45136;SDS011;30894;51.740;19.498;2023-04-01T22:22:30;7.97;;;3.72;;
45136;SDS011;30894;51.740;19.498;2023-04-01T22:38:21;7.60;;;3.85;;
45136;SDS011;30894;51.740;19.498;2023-04-01T22:44:46;9.30;;;3.70;;
45136;SDS011;30894;51.740;19.498;2023-04-01T22:48:05;9.73;;;4.03;;
45136;SDS011;30894;51.740;19.498;2023-04-01T22:54:27;6.43;;;3.22;;
45136;SDS011;30894;51.740;19.498;2023-04-01T23:00:04;8.52;;;4.40;;
45136;SDS011;30894;51.740;19.498;2023-04-01T23:02:46;7.18;;;3.55;;
45136;SDS011;30894;51.740;19.498;2023-04-01T23:05:52;11.65;;;4.00;;
45136;SDS011;30894;51.740;19.498;2023-04-01T23:08:46;7.75;;;2.92;;
45136;SDS011;30894;51.740;19.498;2023-04-01T23:16:57;7.15;;;4.00;;
45136;SDS011;30894;51.740;19.498;2023-04-01T23:19:44;7.97;;;3.45;;
45136;SDS011;30894;51.740;19.498;2023-04-01T23:22:32;8.68;;;3.97;;
45136;SDS011;30894;51.740;19.498;2023-04-01T23:25:44;7.57;;;3.40;;
45136;SDS011;30894;51.740;19.498;2023-04-01T23:28:23;7.68;;;2.97;;
45136;SDS011;30894;51.740;19.498;2023-04-01T23:31:36;6.95;;;3.20;;
45136;SDS011;30894;51.740;19.498;2023-04-01T23:36:39;4.50;;;2.65;;
45136;SDS011;30894;51.740;19.498;2023-04-01T23:39:23;4.18;;;2.78;;
45136;SDS011;30894;51.740;19.498;2023-04-01T23:42:20;5.18;;;2.85;;
45136;SDS011;30894;51.740;19.498;2023-04-01T23:44:59;8.85;;;2.80;;
45136;SDS011;30894;51.740;19.498;2023-04-01T23:47:46;4.80;;;2.70;;
45136;SDS011;30894;51.740;19.498;2023-04-01T23:50:18;3.85;;;1.90;;
45136;SDS011;30894;51.740;19.498;2023-04-01T23:52:52;5.55;;;2.10;;
45136;SDS011;30894;51.740;19.498;2023-04-01T23:55:27;4.53;;;2.75;;
45136;SDS011;30894;51.740;19.498;2023-04-01T23:58:18;4.38;;;2.53;;
